sensor_id;sensor_type;location;lat;lon;timestamp;P1;durP1;ratioP1;P2;durP2;ratioP2
51838;SDS011;37886;53.174;6.368;2024-03-06T00:02:23;9.57;;;4.00;;
51838;SDS011;37886;53.174;6.368;2024-03-06T00:04:49;16.88;;;4.93;;
51838;SDS011;37886;53.174;6.368;2024-03-06T00:07:15;11.70;;;4.30;;
51838;SDS011;37886;53.174;6.368;2024-03-06T00:09:41;13.80;;;5.00;;
51838;SDS011;37886;53.174;6.368;2024-03-06T00:12:07;13.93;;;4.35;;
51838;SDS011;37886;53.174;6.368;2024-03-06T00:14:33;16.75;;;4.45;;
51838;SDS011;37886;53.174;6.368;2024-03-06T00:17:01;16.13;;;4.70;;
51838;SDS011;37886;53.174;6.368;2024-03-06T00:19:29;12.00;;;4.47;;
51838;SDS011;37886;53.174;6.368;2024-03-06T00:21:55;14.45;;;4.72;;
51838;SDS011;37886;53.174;6.368;2024-03-06T00:24:21;11.88;;;4.07;;
51838;SDS011;37886;53.174;6.368;2024-03-06T00:26:48;13.27;;;4.35;;
51838;SDS011;37886;53.174;6.368;2024-03-06T00:29:14;15.65;;;4.28;;
51838;SDS011;37886;53.174;6.368;2024-03-06T00:31:43;14.05;;;4.90;;
51838;SDS011;37886;53.174;6.368;2024-03-06T00:34:10;13.27;;;4.32;;
51838;SDS011;37886;53.174;6.368;2024-03-06T00:36:39;10.57;;;4.65;;
51838;SDS011;37886;53.174;6.368;2024-03-06T00:39:05;16.15;;;4.72;;
51838;SDS011;37886;53.174;6.368;2024-03-06T00:41:33;9.82;;;4.50;;
51838;SDS011;37886;53.174;6.368;2024-03-06T00:43:59;15.25;;;4.80;;
51838;SDS011;37886;53.174;6.368;2024-03-06T00:46:25;10.95;;;4.97;;
51838;SDS011;37886;53.174;6.368;2024-03-06T00:48:50;11.82;;;4.68;;
51838;SDS011;37886;53.174;6.368;2024-03-06T00:51:16;17.38;;;4.22;;
51838;SDS011;37886;53.174;6.368;2024-03-06T00:53:42;11.57;;;4.25;;
51838;SDS011;37886;53.174;6.368;2024-03-06T00:56:09;14.73;;;4.43;;
51838;SDS011;37886;53.174;6.368;2024-03-06T00:58:35;20.55;;;4.90;;
51838;SDS011;37886;53.174;6.368;2024-03-06T01:01:00;12.85;;;4.70;;
51838;SDS011;37886;53.174;6.368;2024-03-06T01:03:26;13.20;;;4.50;;
51838;SDS011;37886;53.174;6.368;2024-03-06T01:05:52;17.33;;;4.78;;
51838;SDS011;37886;53.174;6.368;2024-03-06T01:08:18;16.15;;;5.03;;
51838;SDS011;37886;53.174;6.368;2024-03-06T01:10:44;11.10;;;4.28;;
51838;SDS011;37886;53.174;6.368;2024-03-06T01:13:10;10.77;;;4.40;;
51838;SDS011;37886;53.174;6.368;2024-03-06T01:15:36;9.77;;;4.03;;
51838;SDS011;37886;53.174;6.368;2024-03-06T01:18:03;11.30;;;4.00;;
51838;SDS011;37886;53.174;6.368;2024-03-06T01:20:29;14.02;;;4.32;;
51838;SDS011;37886;53.174;6.368;2024-03-06T01:22:54;13.43;;;3.88;;
51838;SDS011;37886;53.174;6.368;2024-03-06T01:25:20;11.63;;;4.28;;
51838;SDS011;37886;53.174;6.368;2024-03-06T01:27:49;11.43;;;4.05;;
51838;SDS011;37886;53.174;6.368;2024-03-06T01:30:15;11.10;;;4.20;;
51838;SDS011;37886;53.174;6.368;2024-03-06T01:32:40;18.42;;;4.65;;
51838;SDS011;37886;53.174;6.368;2024-03-06T01:35:06;12.15;;;4.40;;
51838;SDS011;37886;53.174;6.368;2024-03-06T01:37:32;15.77;;;4.47;;
51838;SDS011;37886;53.174;6.368;2024-03-06T01:39:58;15.10;;;5.18;;
51838;SDS011;37886;53.174;6.368;2024-03-06T01:42:23;13.85;;;4.60;;
51838;SDS011;37886;53.174;6.368;2024-03-06T01:44:49;15.38;;;4.50;;
51838;SDS011;37886;53.174;6.368;2024-03-06T01:47:15;20.10;;;4.53;;
51838;SDS011;37886;53.174;6.368;2024-03-06T01:49:41;13.02;;;4.63;;
51838;SDS011;37886;53.174;6.368;2024-03-06T01:52:08;16.63;;;4.78;;
51838;SDS011;37886;53.174;6.368;2024-03-06T01:54:37;11.52;;;4.68;;
51838;SDS011;37886;53.174;6.368;2024-03-06T01:57:04;10.02;;;4.47;;
51838;SDS011;37886;53.174;6.368;2024-03-06T01:59:31;10.30;;;4.53;;
51838;SDS011;37886;53.174;6.368;2024-03-06T02:01:57;12.60;;;4.03;;
51838;SDS011;37886;53.174;6.368;2024-03-06T02:04:23;12.38;;;4.32;;
51838;SDS011;37886;53.174;6.368;2024-03-06T02:06:53;13.30;;;4.40;;
51838;SDS011;37886;53.174;6.368;2024-03-06T02:09:18;13.85;;;4.70;;
51838;SDS011;37886;53.174;6.368;2024-03-06T02:11:45;10.23;;;4.20;;
51838;SDS011;37886;53.174;6.368;2024-03-06T02:14:12;11.55;;;4.60;;
51838;SDS011;37886;53.174;6.368;2024-03-06T02:16:38;12.63;;;4.32;;
51838;SDS011;37886;53.174;6.368;2024-03-06T02:19:04;12.93;;;4.72;;
51838;SDS011;37886;53.174;6.368;2024-03-06T02:21:30;9.38;;;4.20;;
51838;SDS011;37886;53.174;6.368;2024-03-06T02:23:56;11.45;;;4.25;;
51838;SDS011;37886;53.174;6.368;2024-03-06T02:26:22;11.25;;;4.70;;
51838;SDS011;37886;53.174;6.368;2024-03-06T02:28:51;12.75;;;4.32;;
51838;SDS011;37886;53.174;6.368;2024-03-06T02:31:19;14.73;;;4.60;;
51838;SDS011;37886;53.174;6.368;2024-03-06T02:33:46;13.43;;;4.60;;
51838;SDS011;37886;53.174;6.368;2024-03-06T02:36:13;12.25;;;4.70;;
51838;SDS011;37886;53.174;6.368;2024-03-06T02:38:39;12.00;;;4.97;;
51838;SDS011;37886;53.174;6.368;2024-03-06T02:41:05;16.23;;;4.97;;
51838;SDS011;37886;53.174;6.368;2024-03-06T02:43:32;16.92;;;5.20;;
51838;SDS011;37886;53.174;6.368;2024-03-06T02:45:58;13.02;;;4.90;;
51838;SDS011;37886;53.174;6.368;2024-03-06T02:48:24;8.75;;;4.40;;
51838;SDS011;37886;53.174;6.368;2024-03-06T02:50:50;12.25;;;4.90;;
51838;SDS011;37886;53.174;6.368;2024-03-06T02:53:15;11.77;;;4.97;;
51838;SDS011;37886;53.174;6.368;2024-03-06T02:55:41;12.25;;;4.80;;
51838;SDS011;37886;53.174;6.368;2024-03-06T02:58:07;17.00;;;4.70;;
51838;SDS011;37886;53.174;6.368;2024-03-06T03:00:33;9.68;;;4.95;;
51838;SDS011;37886;53.174;6.368;2024-03-06T03:02:58;10.80;;;4.45;;
51838;SDS011;37886;53.174;6.368;2024-03-06T03:05:24;14.65;;;4.85;;
51838;SDS011;37886;53.174;6.368;2024-03-06T03:07:50;12.65;;;5.10;;
51838;SDS011;37886;53.174;6.368;2024-03-06T03:10:16;12.85;;;5.43;;
51838;SDS011;37886;53.174;6.368;2024-03-06T03:12:42;13.30;;;4.70;;
51838;SDS011;37886;53.174;6.368;2024-03-06T03:15:08;18.20;;;5.40;;
51838;SDS011;37886;53.174;6.368;2024-03-06T03:17:35;14.38;;;5.57;;
51838;SDS011;37886;53.174;6.368;2024-03-06T03:20:02;12.55;;;5.22;;
51838;SDS011;37886;53.174;6.368;2024-03-06T03:22:39;17.98;;;5.25;;
51838;SDS011;37886;53.174;6.368;2024-03-06T03:25:12;12.82;;;5.07;;
51838;SDS011;37886;53.174;6.368;2024-03-06T03:27:38;12.63;;;5.70;;
51838;SDS011;37886;53.174;6.368;2024-03-06T03:30:08;15.45;;;5.22;;
51838;SDS011;37886;53.174;6.368;2024-03-06T03:32:35;12.10;;;5.10;;
51838;SDS011;37886;53.174;6.368;2024-03-06T03:35:01;12.60;;;5.72;;
51838;SDS011;37886;53.174;6.368;2024-03-06T03:37:28;11.98;;;4.82;;
51838;SDS011;37886;53.174;6.368;2024-03-06T03:39:54;12.55;;;5.15;;
51838;SDS011;37886;53.174;6.368;2024-03-06T03:42:20;13.70;;;5.28;;
51838;SDS011;37886;53.174;6.368;2024-03-06T03:44:45;19.33;;;5.13;;
51838;SDS011;37886;53.174;6.368;2024-03-06T03:47:11;13.20;;;5.20;;
51838;SDS011;37886;53.174;6.368;2024-03-06T03:49:37;16.55;;;5.80;;
51838;SDS011;37886;53.174;6.368;2024-03-06T03:52:03;12.23;;;5.15;;
51838;SDS011;37886;53.174;6.368;2024-03-06T03:54:29;14.35;;;5.35;;
51838;SDS011;37886;53.174;6.368;2024-03-06T03:56:55;11.27;;;5.10;;
51838;SDS011;37886;53.174;6.368;2024-03-06T03:59:20;13.07;;;5.70;;
51838;SDS011;37886;53.174;6.368;2024-03-06T04:01:46;18.90;;;5.15;;
51838;SDS011;37886;53.174;6.368;2024-03-06T04:04:12;16.60;;;5.28;;
51838;SDS011;37886;53.174;6.368;2024-03-06T04:06:38;13.32;;;5.18;;
51838;SDS011;37886;53.174;6.368;2024-03-06T04:09:04;16.00;;;5.60;;
51838;SDS011;37886;53.174;6.368;2024-03-06T04:11:30;16.02;;;6.40;;
51838;SDS011;37886;53.174;6.368;2024-03-06T04:13:59;21.25;;;5.40;;
51838;SDS011;37886;53.174;6.368;2024-03-06T04:16:25;13.15;;;5.53;;
51838;SDS011;37886;53.174;6.368;2024-03-06T04:18:51;13.35;;;6.07;;
51838;SDS011;37886;53.174;6.368;2024-03-06T04:21:16;15.70;;;5.50;;
51838;SDS011;37886;53.174;6.368;2024-03-06T04:23:43;19.58;;;6.03;;
51838;SDS011;37886;53.174;6.368;2024-03-06T04:26:09;14.30;;;5.40;;
51838;SDS011;37886;53.174;6.368;2024-03-06T04:28:35;12.48;;;5.55;;
51838;SDS011;37886;53.174;6.368;2024-03-06T04:31:01;12.98;;;5.55;;
51838;SDS011;37886;53.174;6.368;2024-03-06T04:33:29;18.45;;;5.88;;
51838;SDS011;37886;53.174;6.368;2024-03-06T04:35:56;12.93;;;5.38;;
51838;SDS011;37886;53.174;6.368;2024-03-06T04:38:21;13.70;;;5.88;;
51838;SDS011;37886;53.174;6.368;2024-03-06T04:40:47;13.40;;;5.72;;
51838;SDS011;37886;53.174;6.368;2024-03-06T04:43:13;15.70;;;6.13;;
51838;SDS011;37886;53.174;6.368;2024-03-06T04:45:39;16.25;;;6.15;;
51838;SDS011;37886;53.174;6.368;2024-03-06T04:48:05;14.63;;;6.22;;
51838;SDS011;37886;53.174;6.368;2024-03-06T04:50:31;14.25;;;6.07;;
51838;SDS011;37886;53.174;6.368;2024-03-06T04:52:57;16.17;;;5.93;;
51838;SDS011;37886;53.174;6.368;2024-03-06T04:55:23;15.75;;;5.50;;
51838;SDS011;37886;53.174;6.368;2024-03-06T04:57:51;22.98;;;6.03;;
51838;SDS011;37886;53.174;6.368;2024-03-06T05:00:18;11.38;;;6.07;;
51838;SDS011;37886;53.174;6.368;2024-03-06T05:02:44;13.95;;;5.88;;
51838;SDS011;37886;53.174;6.368;2024-03-06T05:05:11;11.45;;;5.90;;
51838;SDS011;37886;53.174;6.368;2024-03-06T05:07:36;19.92;;;6.35;;
51838;SDS011;37886;53.174;6.368;2024-03-06T05:10:02;17.55;;;6.55;;
51838;SDS011;37886;53.174;6.368;2024-03-06T05:12:28;14.80;;;6.40;;
51838;SDS011;37886;53.174;6.368;2024-03-06T05:14:54;20.00;;;6.18;;
51838;SDS011;37886;53.174;6.368;2024-03-06T05:17:20;19.02;;;6.40;;
51838;SDS011;37886;53.174;6.368;2024-03-06T05:19:47;20.40;;;5.85;;
51838;SDS011;37886;53.174;6.368;2024-03-06T05:22:14;15.90;;;5.82;;
51838;SDS011;37886;53.174;6.368;2024-03-06T05:24:40;17.67;;;6.32;;
51838;SDS011;37886;53.174;6.368;2024-03-06T05:27:07;16.02;;;6.57;;
51838;SDS011;37886;53.174;6.368;2024-03-06T05:29:35;14.07;;;6.45;;
51838;SDS011;37886;53.174;6.368;2024-03-06T05:32:04;17.80;;;6.85;;
51838;SDS011;37886;53.174;6.368;2024-03-06T05:34:32;13.70;;;5.95;;
51838;SDS011;37886;53.174;6.368;2024-03-06T05:36:58;16.63;;;6.47;;
51838;SDS011;37886;53.174;6.368;2024-03-06T05:39:24;17.63;;;6.85;;
51838;SDS011;37886;53.174;6.368;2024-03-06T05:41:50;16.70;;;6.28;;
51838;SDS011;37886;53.174;6.368;2024-03-06T05:44:16;16.92;;;6.57;;
51838;SDS011;37886;53.174;6.368;2024-03-06T05:46:41;18.88;;;6.43;;
51838;SDS011;37886;53.174;6.368;2024-03-06T05:49:07;15.63;;;6.57;;
51838;SDS011;37886;53.174;6.368;2024-03-06T05:51:33;20.42;;;6.60;;
51838;SDS011;37886;53.174;6.368;2024-03-06T05:53:58;17.48;;;6.82;;
51838;SDS011;37886;53.174;6.368;2024-03-06T05:56:24;15.38;;;6.53;;
51838;SDS011;37886;53.174;6.368;2024-03-06T05:58:50;18.17;;;6.47;;
51838;SDS011;37886;53.174;6.368;2024-03-06T06:01:16;23.75;;;7.03;;
51838;SDS011;37886;53.174;6.368;2024-03-06T06:03:46;19.55;;;7.32;;
51838;SDS011;37886;53.174;6.368;2024-03-06T06:06:14;15.45;;;6.72;;
51838;SDS011;37886;53.174;6.368;2024-03-06T06:08:40;23.27;;;6.90;;
51838;SDS011;37886;53.174;6.368;2024-03-06T06:11:06;17.70;;;6.93;;
51838;SDS011;37886;53.174;6.368;2024-03-06T06:13:33;16.98;;;6.60;;
51838;SDS011;37886;53.174;6.368;2024-03-06T06:15:58;17.73;;;6.88;;
51838;SDS011;37886;53.174;6.368;2024-03-06T06:18:24;16.00;;;6.82;;
51838;SDS011;37886;53.174;6.368;2024-03-06T06:20:51;19.95;;;6.60;;
51838;SDS011;37886;53.174;6.368;2024-03-06T06:23:17;17.95;;;7.53;;
51838;SDS011;37886;53.174;6.368;2024-03-06T06:25:42;22.88;;;7.53;;
51838;SDS011;37886;53.174;6.368;2024-03-06T06:28:08;17.13;;;6.85;;
51838;SDS011;37886;53.174;6.368;2024-03-06T06:30:35;22.88;;;6.72;;
51838;SDS011;37886;53.174;6.368;2024-03-06T06:33:01;21.38;;;7.25;;
51838;SDS011;37886;53.174;6.368;2024-03-06T06:35:27;24.27;;;7.53;;
51838;SDS011;37886;53.174;6.368;2024-03-06T06:37:52;22.90;;;7.28;;
51838;SDS011;37886;53.174;6.368;2024-03-06T06:40:18;16.90;;;7.85;;
51838;SDS011;37886;53.174;6.368;2024-03-06T06:42:45;19.50;;;7.50;;
51838;SDS011;37886;53.174;6.368;2024-03-06T06:45:14;27.30;;;7.57;;
51838;SDS011;37886;53.174;6.368;2024-03-06T06:47:41;14.02;;;6.45;;
51838;SDS011;37886;53.174;6.368;2024-03-06T06:50:07;16.17;;;7.65;;
51838;SDS011;37886;53.174;6.368;2024-03-06T06:52:34;22.40;;;7.75;;
51838;SDS011;37886;53.174;6.368;2024-03-06T06:55:00;19.15;;;7.20;;
51838;SDS011;37886;53.174;6.368;2024-03-06T06:57:27;19.15;;;7.78;;
51838;SDS011;37886;53.174;6.368;2024-03-06T06:59:52;18.95;;;7.57;;
51838;SDS011;37886;53.174;6.368;2024-03-06T07:02:18;18.73;;;7.97;;
51838;SDS011;37886;53.174;6.368;2024-03-06T07:04:44;20.58;;;6.90;;
51838;SDS011;37886;53.174;6.368;2024-03-06T07:07:10;20.10;;;7.38;;
51838;SDS011;37886;53.174;6.368;2024-03-06T07:09:35;18.40;;;7.32;;
51838;SDS011;37886;53.174;6.368;2024-03-06T07:12:01;18.58;;;7.78;;
51838;SDS011;37886;53.174;6.368;2024-03-06T07:14:28;19.65;;;7.38;;
51838;SDS011;37886;53.174;6.368;2024-03-06T07:16:53;21.20;;;7.40;;
51838;SDS011;37886;53.174;6.368;2024-03-06T07:19:19;26.00;;;7.53;;
51838;SDS011;37886;53.174;6.368;2024-03-06T07:21:45;19.27;;;7.88;;
51838;SDS011;37886;53.174;6.368;2024-03-06T07:24:11;19.02;;;7.18;;
51838;SDS011;37886;53.174;6.368;2024-03-06T07:26:36;21.13;;;7.28;;
51838;SDS011;37886;53.174;6.368;2024-03-06T07:29:02;17.95;;;7.47;;
51838;SDS011;37886;53.174;6.368;2024-03-06T07:31:28;17.65;;;6.95;;
51838;SDS011;37886;53.174;6.368;2024-03-06T07:33:54;17.52;;;7.07;;
51838;SDS011;37886;53.174;6.368;2024-03-06T07:36:20;20.77;;;7.85;;
51838;SDS011;37886;53.174;6.368;2024-03-06T07:38:47;20.65;;;6.93;;
51838;SDS011;37886;53.174;6.368;2024-03-06T07:41:12;19.90;;;7.10;;
51838;SDS011;37886;53.174;6.368;2024-03-06T07:43:38;22.75;;;7.78;;
51838;SDS011;37886;53.174;6.368;2024-03-06T07:46:04;21.73;;;7.35;;
51838;SDS011;37886;53.174;6.368;2024-03-06T07:48:36;25.65;;;7.18;;
51838;SDS011;37886;53.174;6.368;2024-03-06T07:51:02;18.48;;;7.75;;
51838;SDS011;37886;53.174;6.368;2024-03-06T07:53:28;15.80;;;7.13;;
51838;SDS011;37886;53.174;6.368;2024-03-06T07:55:54;22.05;;;7.07;;
51838;SDS011;37886;53.174;6.368;2024-03-06T07:58:19;20.35;;;7.05;;
51838;SDS011;37886;53.174;6.368;2024-03-06T08:00:46;23.20;;;7.75;;
51838;SDS011;37886;53.174;6.368;2024-03-06T08:03:12;24.33;;;8.02;;
51838;SDS011;37886;53.174;6.368;2024-03-06T08:05:38;27.20;;;7.93;;
51838;SDS011;37886;53.174;6.368;2024-03-06T08:08:04;17.20;;;7.25;;
51838;SDS011;37886;53.174;6.368;2024-03-06T08:10:30;22.83;;;7.88;;
51838;SDS011;37886;53.174;6.368;2024-03-06T08:12:56;21.58;;;8.00;;
51838;SDS011;37886;53.174;6.368;2024-03-06T08:15:22;17.00;;;7.20;;
51838;SDS011;37886;53.174;6.368;2024-03-06T08:17:48;19.48;;;8.02;;
51838;SDS011;37886;53.174;6.368;2024-03-06T08:20:14;18.58;;;8.27;;
51838;SDS011;37886;53.174;6.368;2024-03-06T08:22:41;21.15;;;7.95;;
51838;SDS011;37886;53.174;6.368;2024-03-06T08:25:11;16.95;;;7.57;;
51838;SDS011;37886;53.174;6.368;2024-03-06T08:27:41;19.50;;;7.27;;
51838;SDS011;37886;53.174;6.368;2024-03-06T08:30:07;17.33;;;7.60;;
51838;SDS011;37886;53.174;6.368;2024-03-06T08:32:34;18.83;;;7.75;;
51838;SDS011;37886;53.174;6.368;2024-03-06T08:35:02;20.17;;;7.57;;
51838;SDS011;37886;53.174;6.368;2024-03-06T08:37:31;17.00;;;7.63;;
51838;SDS011;37886;53.174;6.368;2024-03-06T08:39:58;20.90;;;7.50;;
51838;SDS011;37886;53.174;6.368;2024-03-06T08:42:24;20.10;;;8.18;;
51838;SDS011;37886;53.174;6.368;2024-03-06T08:44:50;19.55;;;7.47;;
51838;SDS011;37886;53.174;6.368;2024-03-06T08:47:16;20.80;;;7.78;;
51838;SDS011;37886;53.174;6.368;2024-03-06T08:49:42;20.13;;;7.30;;
51838;SDS011;37886;53.174;6.368;2024-03-06T08:52:07;18.83;;;7.30;;
51838;SDS011;37886;53.174;6.368;2024-03-06T08:54:35;16.60;;;7.85;;
51838;SDS011;37886;53.174;6.368;2024-03-06T08:57:01;19.73;;;7.75;;
51838;SDS011;37886;53.174;6.368;2024-03-06T08:59:28;15.68;;;7.85;;
51838;SDS011;37886;53.174;6.368;2024-03-06T09:01:54;21.75;;;7.85;;
51838;SDS011;37886;53.174;6.368;2024-03-06T09:04:23;17.63;;;7.75;;
51838;SDS011;37886;53.174;6.368;2024-03-06T09:06:49;21.40;;;7.78;;
51838;SDS011;37886;53.174;6.368;2024-03-06T09:09:15;21.42;;;8.00;;
51838;SDS011;37886;53.174;6.368;2024-03-06T09:11:41;21.08;;;8.02;;
51838;SDS011;37886;53.174;6.368;2024-03-06T09:14:09;17.50;;;7.70;;
51838;SDS011;37886;53.174;6.368;2024-03-06T09:16:35;21.15;;;7.55;;
51838;SDS011;37886;53.174;6.368;2024-03-06T09:19:01;17.55;;;7.78;;
51838;SDS011;37886;53.174;6.368;2024-03-06T09:21:27;17.95;;;7.82;;
51838;SDS011;37886;53.174;6.368;2024-03-06T09:23:53;20.30;;;7.63;;
51838;SDS011;37886;53.174;6.368;2024-03-06T09:26:19;25.67;;;7.78;;
51838;SDS011;37886;53.174;6.368;2024-03-06T09:28:45;19.05;;;7.60;;
51838;SDS011;37886;53.174;6.368;2024-03-06T09:31:11;16.77;;;7.70;;
51838;SDS011;37886;53.174;6.368;2024-03-06T09:33:41;16.65;;;7.55;;
51838;SDS011;37886;53.174;6.368;2024-03-06T09:36:10;19.65;;;7.43;;
51838;SDS011;37886;53.174;6.368;2024-03-06T09:38:38;19.33;;;7.30;;
51838;SDS011;37886;53.174;6.368;2024-03-06T09:41:08;18.05;;;7.30;;
51838;SDS011;37886;53.174;6.368;2024-03-06T09:43:34;15.15;;;7.22;;
51838;SDS011;37886;53.174;6.368;2024-03-06T09:46:00;24.95;;;7.88;;
51838;SDS011;37886;53.174;6.368;2024-03-06T09:48:29;17.05;;;7.45;;
51838;SDS011;37886;53.174;6.368;2024-03-06T09:50:57;23.45;;;7.88;;
51838;SDS011;37886;53.174;6.368;2024-03-06T09:53:27;21.92;;;7.65;;
51838;SDS011;37886;53.174;6.368;2024-03-06T09:55:53;19.10;;;7.78;;
51838;SDS011;37886;53.174;6.368;2024-03-06T09:58:21;18.45;;;8.20;;
51838;SDS011;37886;53.174;6.368;2024-03-06T10:00:47;20.38;;;7.97;;
51838;SDS011;37886;53.174;6.368;2024-03-06T10:03:15;20.13;;;7.72;;
51838;SDS011;37886;53.174;6.368;2024-03-06T10:05:40;20.60;;;8.38;;
51838;SDS011;37886;53.174;6.368;2024-03-06T10:08:08;23.50;;;8.68;;
51838;SDS011;37886;53.174;6.368;2024-03-06T10:10:35;25.02;;;9.98;;
51838;SDS011;37886;53.174;6.368;2024-03-06T10:13:02;23.00;;;8.57;;
51838;SDS011;37886;53.174;6.368;2024-03-06T10:15:27;18.75;;;8.13;;
51838;SDS011;37886;53.174;6.368;2024-03-06T10:18:13;17.45;;;7.75;;
51838;SDS011;37886;53.174;6.368;2024-03-06T10:20:40;20.33;;;8.00;;
51838;SDS011;37886;53.174;6.368;2024-03-06T10:23:09;18.10;;;7.72;;
51838;SDS011;37886;53.174;6.368;2024-03-06T10:25:35;22.38;;;8.18;;
51838;SDS011;37886;53.174;6.368;2024-03-06T10:28:11;21.13;;;8.23;;
51838;SDS011;37886;53.174;6.368;2024-03-06T10:30:41;19.27;;;8.15;;
51838;SDS011;37886;53.174;6.368;2024-03-06T10:33:07;17.98;;;8.07;;
51838;SDS011;37886;53.174;6.368;2024-03-06T10:35:33;21.15;;;8.20;;
51838;SDS011;37886;53.174;6.368;2024-03-06T10:38:03;18.20;;;8.65;;
51838;SDS011;37886;53.174;6.368;2024-03-06T10:40:37;21.65;;;7.93;;
51838;SDS011;37886;53.174;6.368;2024-03-06T10:43:05;18.45;;;8.32;;
51838;SDS011;37886;53.174;6.368;2024-03-06T10:48:15;23.38;;;8.10;;
51838;SDS011;37886;53.174;6.368;2024-03-06T10:53:13;18.45;;;8.05;;
51838;SDS011;37886;53.174;6.368;2024-03-06T10:55:42;21.77;;;7.97;;
51838;SDS011;37886;53.174;6.368;2024-03-06T10:58:12;24.55;;;8.45;;
51838;SDS011;37886;53.174;6.368;2024-03-06T11:00:41;15.82;;;8.13;;
51838;SDS011;37886;53.174;6.368;2024-03-06T11:03:11;18.42;;;8.27;;
51838;SDS011;37886;53.174;6.368;2024-03-06T11:05:40;26.67;;;8.95;;
51838;SDS011;37886;53.174;6.368;2024-03-06T11:08:10;20.63;;;8.43;;
51838;SDS011;37886;53.174;6.368;2024-03-06T11:10:38;18.90;;;8.40;;
51838;SDS011;37886;53.174;6.368;2024-03-06T11:13:24;22.20;;;8.57;;
51838;SDS011;37886;53.174;6.368;2024-03-06T11:15:57;19.42;;;8.57;;
51838;SDS011;37886;53.174;6.368;2024-03-06T11:20:59;21.23;;;8.50;;
51838;SDS011;37886;53.174;6.368;2024-03-06T11:23:28;22.30;;;8.98;;
51838;SDS011;37886;53.174;6.368;2024-03-06T11:28:27;21.55;;;9.02;;
51838;SDS011;37886;53.174;6.368;2024-03-06T11:33:44;20.48;;;8.98;;
51838;SDS011;37886;53.174;6.368;2024-03-06T11:36:21;25.05;;;9.40;;
51838;SDS011;37886;53.174;6.368;2024-03-06T11:41:22;22.63;;;9.02;;
51838;SDS011;37886;53.174;6.368;2024-03-06T11:43:50;24.08;;;9.43;;
51838;SDS011;37886;53.174;6.368;2024-03-06T11:46:18;24.05;;;9.80;;
51838;SDS011;37886;53.174;6.368;2024-03-06T11:48:55;21.65;;;10.07;;
51838;SDS011;37886;53.174;6.368;2024-03-06T11:51:24;22.42;;;10.13;;
51838;SDS011;37886;53.174;6.368;2024-03-06T11:53:51;21.50;;;9.52;;
51838;SDS011;37886;53.174;6.368;2024-03-06T11:56:18;23.50;;;8.85;;
51838;SDS011;37886;53.174;6.368;2024-03-06T11:58:45;24.75;;;9.27;;
51838;SDS011;37886;53.174;6.368;2024-03-06T12:01:11;23.67;;;9.85;;
51838;SDS011;37886;53.174;6.368;2024-03-06T12:03:38;20.58;;;8.93;;
51838;SDS011;37886;53.174;6.368;2024-03-06T12:06:05;20.42;;;9.23;;
51838;SDS011;37886;53.174;6.368;2024-03-06T12:08:31;25.35;;;10.02;;
51838;SDS011;37886;53.174;6.368;2024-03-06T12:10:58;26.15;;;10.02;;
51838;SDS011;37886;53.174;6.368;2024-03-06T12:13:24;21.50;;;9.57;;
51838;SDS011;37886;53.174;6.368;2024-03-06T12:15:50;23.05;;;9.23;;
51838;SDS011;37886;53.174;6.368;2024-03-06T12:18:17;19.45;;;9.60;;
51838;SDS011;37886;53.174;6.368;2024-03-06T12:20:43;26.15;;;9.07;;
51838;SDS011;37886;53.174;6.368;2024-03-06T12:23:20;23.35;;;9.25;;
51838;SDS011;37886;53.174;6.368;2024-03-06T12:25:48;28.88;;;9.55;;
51838;SDS011;37886;53.174;6.368;2024-03-06T12:28:14;24.35;;;9.00;;
51838;SDS011;37886;53.174;6.368;2024-03-06T12:30:41;21.63;;;8.75;;
51838;SDS011;37886;53.174;6.368;2024-03-06T12:33:08;25.15;;;9.10;;
51838;SDS011;37886;53.174;6.368;2024-03-06T12:35:34;19.65;;;9.02;;
51838;SDS011;37886;53.174;6.368;2024-03-06T12:38:10;20.80;;;9.27;;
51838;SDS011;37886;53.174;6.368;2024-03-06T12:40:40;23.42;;;9.50;;
51838;SDS011;37886;53.174;6.368;2024-03-06T12:43:07;20.73;;;9.68;;
51838;SDS011;37886;53.174;6.368;2024-03-06T12:45:34;22.38;;;9.52;;
51838;SDS011;37886;53.174;6.368;2024-03-06T12:48:01;20.23;;;9.52;;
51838;SDS011;37886;53.174;6.368;2024-03-06T12:50:27;26.40;;;10.05;;
51838;SDS011;37886;53.174;6.368;2024-03-06T12:52:53;19.80;;;9.52;;
51838;SDS011;37886;53.174;6.368;2024-03-06T12:55:19;25.83;;;10.40;;
51838;SDS011;37886;53.174;6.368;2024-03-06T12:57:45;23.20;;;10.02;;
51838;SDS011;37886;53.174;6.368;2024-03-06T13:00:11;21.83;;;9.90;;
51838;SDS011;37886;53.174;6.368;2024-03-06T13:02:43;24.38;;;9.77;;
51838;SDS011;37886;53.174;6.368;2024-03-06T13:05:09;23.33;;;9.90;;
51838;SDS011;37886;53.174;6.368;2024-03-06T13:07:35;20.02;;;9.38;;
51838;SDS011;37886;53.174;6.368;2024-03-06T13:10:02;23.52;;;10.50;;
51838;SDS011;37886;53.174;6.368;2024-03-06T13:12:28;26.70;;;11.27;;
51838;SDS011;37886;53.174;6.368;2024-03-06T13:14:54;27.52;;;10.43;;
51838;SDS011;37886;53.174;6.368;2024-03-06T13:17:19;23.17;;;10.73;;
51838;SDS011;37886;53.174;6.368;2024-03-06T13:19:45;23.58;;;10.45;;
51838;SDS011;37886;53.174;6.368;2024-03-06T13:22:11;23.27;;;10.02;;
51838;SDS011;37886;53.174;6.368;2024-03-06T13:24:42;24.08;;;10.23;;
51838;SDS011;37886;53.174;6.368;2024-03-06T13:27:08;25.20;;;10.50;;
51838;SDS011;37886;53.174;6.368;2024-03-06T13:29:34;27.05;;;11.30;;
51838;SDS011;37886;53.174;6.368;2024-03-06T13:31:59;28.38;;;10.57;;
51838;SDS011;37886;53.174;6.368;2024-03-06T13:34:25;30.00;;;11.20;;
51838;SDS011;37886;53.174;6.368;2024-03-06T13:36:51;26.13;;;11.43;;
51838;SDS011;37886;53.174;6.368;2024-03-06T13:39:16;23.27;;;10.55;;
51838;SDS011;37886;53.174;6.368;2024-03-06T13:41:42;32.13;;;11.82;;
51838;SDS011;37886;53.174;6.368;2024-03-06T13:44:07;25.45;;;11.48;;
51838;SDS011;37886;53.174;6.368;2024-03-06T13:46:34;30.58;;;11.63;;
51838;SDS011;37886;53.174;6.368;2024-03-06T13:49:00;28.98;;;11.50;;
51838;SDS011;37886;53.174;6.368;2024-03-06T13:51:25;27.90;;;11.30;;
51838;SDS011;37886;53.174;6.368;2024-03-06T13:53:51;27.10;;;11.85;;
51838;SDS011;37886;53.174;6.368;2024-03-06T13:56:17;23.50;;;11.45;;
51838;SDS011;37886;53.174;6.368;2024-03-06T13:58:43;29.05;;;12.27;;
51838;SDS011;37886;53.174;6.368;2024-03-06T14:01:09;25.55;;;11.88;;
51838;SDS011;37886;53.174;6.368;2024-03-06T14:03:35;31.60;;;13.02;;
51838;SDS011;37886;53.174;6.368;2024-03-06T14:06:03;25.35;;;11.85;;
51838;SDS011;37886;53.174;6.368;2024-03-06T14:08:29;29.50;;;11.98;;
51838;SDS011;37886;53.174;6.368;2024-03-06T14:10:54;22.20;;;11.13;;
51838;SDS011;37886;53.174;6.368;2024-03-06T14:13:20;29.00;;;11.65;;
51838;SDS011;37886;53.174;6.368;2024-03-06T14:15:46;24.90;;;11.07;;
51838;SDS011;37886;53.174;6.368;2024-03-06T14:18:13;30.63;;;12.38;;
51838;SDS011;37886;53.174;6.368;2024-03-06T14:20:39;29.95;;;12.57;;
51838;SDS011;37886;53.174;6.368;2024-03-06T14:23:04;25.10;;;11.98;;
51838;SDS011;37886;53.174;6.368;2024-03-06T14:25:30;23.55;;;11.60;;
51838;SDS011;37886;53.174;6.368;2024-03-06T14:28:00;22.52;;;11.35;;
51838;SDS011;37886;53.174;6.368;2024-03-06T14:30:26;24.48;;;12.05;;
51838;SDS011;37886;53.174;6.368;2024-03-06T14:32:52;27.02;;;12.07;;
51838;SDS011;37886;53.174;6.368;2024-03-06T14:35:18;24.63;;;11.38;;
51838;SDS011;37886;53.174;6.368;2024-03-06T14:37:44;25.98;;;12.48;;
51838;SDS011;37886;53.174;6.368;2024-03-06T14:40:10;25.90;;;11.85;;
51838;SDS011;37886;53.174;6.368;2024-03-06T14:42:36;27.42;;;11.73;;
51838;SDS011;37886;53.174;6.368;2024-03-06T14:45:02;25.15;;;11.68;;
51838;SDS011;37886;53.174;6.368;2024-03-06T14:47:30;28.08;;;11.30;;